Time;durP1;ratioP1;P1;durP2;ratioP2;P2;SDS_P1;SDS_P2;PMS_P1;PMS_P2;Temp;Humidity;BMP_temperature;BMP_pressure;BME280_temperature;BME280_humidity;BME280_pressure;Samples;Min_cycle;Max_cycle;Signal;HPM_P1;HPM_P2
2022/04/12 00:00:57;;;;;;;;;;;;;;;;;;5050886;28;1914;-68
2022/04/12 00:03:24;;;;;;;;;;;;;;;;;;5050608;28;1249;-68
2022/04/12 00:05:51;;;;;;;;;;;;;;;;;;5050463;28;949;-68
2022/04/12 00:08:17;;;;;;;;;;;;;;;;;;5051620;28;783;-68
2022/04/12 00:10:45;;;;;;;;;;;;;;;;;;5054117;28;764;-68
2022/04/12 00:13:12;;;;;;;;;;;;;;;;;;5054143;28;1294;-68
2022/04/12 00:15:38;;;;;;;;;;;;;;;;;;5053881;28;1068;-68
2022/04/12 00:20:48;;;;;;;;;;;;;;;;;;5053937;28;1939;-68
2022/04/12 00:23:14;;;;;;;;;;;;;;;;;;5053760;28;1302;-67
2022/04/12 00:25:42;;;;;;;;;;;;;;;;;;5053918;28;861;-67
2022/04/12 00:28:10;;;;;;;;;;;;;;;;;;5053755;28;980;-68
2022/04/12 00:30:36;;;;;;;;;;;;;;;;;;5054061;28;787;-68
2022/04/12 00:33:03;;;;;;;;;;;;;;;;;;5053966;28;1300;-69
2022/04/12 00:35:29;;;;;;;;;;;;;;;;;;5053728;28;890;-68
2022/04/12 00:37:55;;;;;;;;;;;;;;;;;;5053468;28;1051;-68
2022/04/12 00:40:23;;;;;;;;;;;;;;;;;;5053614;28;1111;-68
2022/04/12 00:42:49;;;;;;;;;;;;;;;;;;5053767;28;1919;-69
2022/04/12 00:45:17;;;;;;;;;;;;;;;;;;5054187;28;1294;-68
2022/04/12 00:47:43;;;;;;;;;;;;;;;;;;5053827;28;937;-68
2022/04/12 00:50:10;;;;;;;;;;;;;;;;;;5053681;28;1027;-68
2022/04/12 00:52:37;;;;;;;;;;;;;;;;;;5054429;28;1114;-68
2022/04/12 00:55:03;;;;;;;;;;;;;;;;;;5051911;28;1553;-68
2022/04/12 00:57:29;;;;;;;;;;;;;;;;;;5054783;28;1072;-68
2022/04/12 00:59:56;;;;;;;;;;;;;;;;;;5053493;28;1076;-68
2022/04/12 01:02:24;;;;;;;;;;;;;;;;;;5053332;28;1918;-67
2022/04/12 01:04:50;;;;;;;;;;;;;;;;;;5053104;28;1290;-68
2022/04/12 01:07:16;;;;;;;;;;;;;;;;;;5053028;28;1122;-68
2022/04/12 01:09:43;;;;;;;;;;;;;;;;;;5053226;28;1084;-68
2022/04/12 01:12:10;;;;;;;;;;;;;;;;;;5052974;28;695;-68
2022/04/12 01:14:36;;;;;;;;;;;;;;;;;;5053303;28;1328;-68
2022/04/12 01:17:03;;;;;;;;;;;;;;;;;;5052375;28;1119;-69
2022/04/12 01:19:30;;;;;;;;;;;;;;;;;;5052408;28;996;-67
2022/04/12 01:22:00;;;;;;;;;;;;;;;;;;5052995;28;1920;-67
2022/04/12 01:24:28;;;;;;;;;;;;;;;;;;5052066;28;1451;-67
2022/04/12 01:26:54;;;;;;;;;;;;;;;;;;5052648;28;818;-69
2022/04/12 01:29:20;;;;;;;;;;;;;;;;;;5052679;28;821;-68
2022/04/12 01:31:47;;;;;;;;;;;;;;;;;;5052941;28;1139;-68
2022/04/12 01:34:13;;;;;;;;;;;;;;;;;;5052322;28;1436;-68
2022/04/12 01:36:39;;;;;;;;;;;;;;;;;;5052094;28;1061;-68
2022/04/12 01:39:05;;;;;;;;;;;;;;;;;;5052212;28;835;-68
2022/04/12 01:41:33;;;;;;;;;;;;;;;;;;5052763;28;1953;-68
2022/04/12 01:43:59;;;;;;;;;;;;;;;;;;5052589;28;1267;-68
2022/04/12 01:46:25;;;;;;;;;;;;;;;;;;5052299;28;1001;-68
2022/04/12 01:48:51;;;;;;;;;;;;;;;;;;5052250;28;1131;-68
2022/04/12 01:51:17;;;;;;;;;;;;;;;;;;5052440;28;979;-68
2022/04/12 01:53:44;;;;;;;;;;;;;;;;;;5052359;28;1322;-69
2022/04/12 01:56:10;;;;;;;;;;;;;;;;;;5051844;28;1120;-69
2022/04/12 01:58:38;;;;;;;;;;;;;;;;;;5052504;28;999;-68
2022/04/12 02:01:04;;;;;;;;;;;;;;;;;;5052526;28;874;-69
2022/04/12 02:03:30;;;;;;;;;;;;;;;;;;5052274;28;1918;-68
2022/04/12 02:05:56;;;;;;;;;;;;;;;;;;5051925;28;1067;-68
2022/04/12 02:08:23;;;;;;;;;;;;;;;;;;5052018;28;874;-69
2022/04/12 02:10:49;;;;;;;;;;;;;;;;;;5051946;28;799;-68
2022/04/12 02:13:16;;;;;;;;;;;;;;;;;;5052203;28;1426;-68
2022/04/12 02:15:43;;;;;;;;;;;;;;;;;;5050770;28;1126;-68
2022/04/12 02:18:10;;;;;;;;;;;;;;;;;;5051570;28;878;-68
2022/04/12 02:20:36;;;;;;;;;;;;;;;;;;5051778;28;1253;-68
2022/04/12 02:23:02;;;;;;;;;;;;;;;;;;5051651;28;1978;-68
2022/04/12 02:25:28;;;;;;;;;;;;;;;;;;5051834;28;1024;-69
2022/04/12 02:27:55;;;;;;;;;;;;;;;;;;5051523;28;1068;-68
2022/04/12 02:30:21;;;;;;;;;;;;;;;;;;5050986;28;1019;-68
2022/04/12 02:32:48;;;;;;;;;;;;;;;;;;5051546;28;814;-68
2022/04/12 02:35:14;;;;;;;;;;;;;;;;;;5051781;28;1349;-68
2022/04/12 02:37:41;;;;;;;;;;;;;;;;;;5051265;28;782;-68
2022/04/12 02:40:07;;;;;;;;;;;;;;;;;;5051250;28;960;-68
2022/04/12 02:42:33;;;;;;;;;;;;;;;;;;5051494;28;1978;-68
2022/04/12 02:45:00;;;;;;;;;;;;;;;;;;5051393;28;1309;-68
2022/04/12 02:47:28;;;;;;;;;;;;;;;;;;5051195;28;774;-68
2022/04/12 02:49:55;;;;;;;;;;;;;;;;;;5050081;28;1143;-68
2022/04/12 02:52:21;;;;;;;;;;;;;;;;;;5051578;28;755;-68
2022/04/12 02:54:47;;;;;;;;;;;;;;;;;;5050900;28;1392;-68
2022/04/12 02:57:15;;;;;;;;;;;;;;;;;;5050896;28;699;-68
2022/04/12 02:59:41;;;;;;;;;;;;;;;;;;5050118;28;957;-68
2022/04/12 03:02:07;;;;;;;;;;;;;;;;;;5047702;28;1914;-69
2022/04/12 03:04:33;;;;;;;;;;;;;;;;;;5051190;28;1298;-68
2022/04/12 03:07:01;;;;;;;;;;;;;;;;;;5050548;28;795;-68
2022/04/12 03:09:33;;;;;;;;;;;;;;;;;;5032331;28;1527;-70
2022/04/12 03:11:59;;;;;;;;;;;;;;;;;;5030674;28;1064;-69
2022/04/12 03:14:25;;;;;;;;;;;;;;;;;;5031085;28;1289;-70
2022/04/12 03:16:51;;;;;;;;;;;;;;;;;;5030748;28;1100;-69
2022/04/12 03:19:18;;;;;;;;;;;;;;;;;;5031084;28;795;-70
2022/04/12 03:21:44;;;;;;;;;;;;;;;;;;5030782;28;1973;-69
2022/04/12 03:24:11;;;;;;;;;;;;;;;;;;5031173;28;1493;-69
2022/04/12 03:26:38;;;;;;;;;;;;;;;;;;5030544;28;942;-70
2022/04/12 03:29:04;;;;;;;;;;;;;;;;;;5030965;28;716;-69
2022/04/12 03:31:30;;;;;;;;;;;;;;;;;;5030632;28;890;-70
2022/04/12 03:33:56;;;;;;;;;;;;;;;;;;5030460;28;1290;-69
2022/04/12 03:36:22;;;;;;;;;;;;;;;;;;5030506;28;783;-70
2022/04/12 03:38:49;;;;;;;;;;;;;;;;;;5030857;28;1016;-70
2022/04/12 03:41:18;;;;;;;;;;;;;;;;;;5030713;28;1123;-69
2022/04/12 03:43:45;;;;;;;;;;;;;;;;;;5030281;28;1981;-70
2022/04/12 03:46:11;;;;;;;;;;;;;;;;;;5030352;28;1119;-69
2022/04/12 03:48:37;;;;;;;;;;;;;;;;;;5030964;28;616;-69
2022/04/12 03:51:03;;;;;;;;;;;;;;;;;;5030643;28;1013;-69
2022/04/12 03:53:29;;;;;;;;;;;;;;;;;;5030195;28;1319;-69
2022/04/12 03:55:56;;;;;;;;;;;;;;;;;;5044587;28;1566;-69
2022/04/12 03:58:23;;;;;;;;;;;;;;;;;;5029092;28;1012;-69
2022/04/12 04:00:50;;;;;;;;;;;;;;;;;;5046454;28;1747;-69
2022/04/12 04:03:17;;;;;;;;;;;;;;;;;;5053695;28;1969;-69
2022/04/12 04:05:44;;;;;;;;;;;;;;;;;;5050104;28;1569;-69
2022/04/12 04:08:10;;;;;;;;;;;;;;;;;;5049507;28;1535;-71
2022/04/12 04:10:37;;;;;;;;;;;;;;;;;;5050267;28;1072;-70
2022/04/12 04:13:08;;;;;;;;;;;;;;;;;;5050289;28;1621;-70
2022/04/12 04:15:37;;;;;;;;;;;;;;;;;;5050398;28;1080;-70
2022/04/12 04:18:03;;;;;;;;;;;;;;;;;;5049580;28;1426;-70
2022/04/12 04:20:29;;;;;;;;;;;;;;;;;;5050230;28;1059;-70
2022/04/12 04:22:55;;;;;;;;;;;;;;;;;;5049656;28;1952;-70
2022/04/12 04:25:21;;;;;;;;;;;;;;;;;;5031963;28;1570;-70
2022/04/12 04:27:47;;;;;;;;;;;;;;;;;;5049915;28;921;-69
2022/04/12 04:30:14;;;;;;;;;;;;;;;;;;5048776;28;1601;-70
2022/04/12 04:32:42;;;;;;;;;;;;;;;;;;5050113;28;1273;-70
2022/04/12 04:35:09;;;;;;;;;;;;;;;;;;5049174;28;1581;-70
2022/04/12 04:37:41;;;;;;;;;;;;;;;;;;5049248;28;1582;-70
2022/04/12 04:40:08;;;;;;;;;;;;;;;;;;5047894;28;1237;-70
2022/04/12 04:42:34;;;;;;;;;;;;;;;;;;5039594;28;2345;-70
2022/04/12 04:45:00;;;;;;;;;;;;;;;;;;5032306;28;1509;-71
2022/04/12 04:47:26;;;;;;;;;;;;;;;;;;5029069;28;1055;-71
2022/04/12 04:49:54;;;;;;;;;;;;;;;;;;5029942;28;894;-71
2022/04/12 04:52:23;;;;;;;;;;;;;;;;;;5037239;28;1510;-69
2022/04/12 04:54:49;;;;;;;;;;;;;;;;;;5046763;28;1302;-70
2022/04/12 04:57:15;;;;;;;;;;;;;;;;;;5033106;28;1162;-70
2022/04/12 04:59:41;;;;;;;;;;;;;;;;;;5041638;28;1131;-70
2022/04/12 05:02:08;;;;;;;;;;;;;;;;;;5044122;28;1220;-70
2022/04/12 05:04:34;;;;;;;;;;;;;;;;;;5053013;28;1988;-70
2022/04/12 05:07:02;;;;;;;;;;;;;;;;;;5053184;28;850;-69
2022/04/12 05:09:28;;;;;;;;;;;;;;;;;;5053055;28;937;-69
2022/04/12 05:11:54;;;;;;;;;;;;;;;;;;5050704;28;1230;-70
2022/04/12 05:14:20;;;;;;;;;;;;;;;;;;5043336;28;1555;-69
2022/04/12 05:16:46;;;;;;;;;;;;;;;;;;5040563;28;1385;-69
2022/04/12 05:19:12;;;;;;;;;;;;;;;;;;5032952;28;1064;-69
2022/04/12 05:21:38;;;;;;;;;;;;;;;;;;5032934;28;1112;-69
2022/04/12 05:24:06;;;;;;;;;;;;;;;;;;5036481;28;1918;-70
2022/04/12 05:26:33;;;;;;;;;;;;;;;;;;5041792;28;1234;-70
2022/04/12 05:28:59;;;;;;;;;;;;;;;;;;5040727;28;1377;-69
2022/04/12 05:31:25;;;;;;;;;;;;;;;;;;5032719;28;1143;-69
2022/04/12 05:33:51;;;;;;;;;;;;;;;;;;5030893;28;1314;-70
2022/04/12 05:36:17;;;;;;;;;;;;;;;;;;5032135;28;897;-70
2022/04/12 05:38:43;;;;;;;;;;;;;;;;;;5032604;28;780;-69
2022/04/12 05:41:11;;;;;;;;;;;;;;;;;;5032447;28;1004;-70
2022/04/12 05:43:37;;;;;;;;;;;;;;;;;;5032436;28;1910;-68
2022/04/12 05:46:03;;;;;;;;;;;;;;;;;;5031389;28;902;-68
2022/04/12 05:48:29;;;;;;;;;;;;;;;;;;5032367;28;1095;-67
2022/04/12 05:50:56;;;;;;;;;;;;;;;;;;5032319;28;1068;-69
2022/04/12 05:53:22;;;;;;;;;;;;;;;;;;5032309;28;1323;-68
2022/04/12 05:55:48;;;;;;;;;;;;;;;;;;5032276;28;1134;-69
2022/04/12 05:58:16;;;;;;;;;;;;;;;;;;5032364;28;1269;-69
2022/04/12 06:00:42;;;;;;;;;;;;;;;;;;5032350;28;1064;-69
2022/04/12 06:03:08;;;;;;;;;;;;;;;;;;5032122;28;1967;-69
2022/04/12 06:05:35;;;;;;;;;;;;;;;;;;5032020;28;1064;-69
2022/04/12 06:08:03;;;;;;;;;;;;;;;;;;5031497;28;929;-70
2022/04/12 06:10:29;;;;;;;;;;;;;;;;;;5032162;28;862;-69
2022/04/12 06:12:55;;;;;;;;;;;;;;;;;;5032174;28;1012;-69
2022/04/12 06:15:22;;;;;;;;;;;;;;;;;;5032126;28;1418;-68
2022/04/12 06:17:49;;;;;;;;;;;;;;;;;;5032001;28;1012;-69
2022/04/12 06:20:15;;;;;;;;;;;;;;;;;;5032122;28;1060;-69
2022/04/12 06:22:42;;;;;;;;;;;;;;;;;;5031762;28;1912;-69
2022/04/12 06:25:09;;;;;;;;;;;;;;;;;;5031808;28;1295;-69
2022/04/12 06:27:35;;;;;;;;;;;;;;;;;;5031880;28;1075;-69
2022/04/12 06:30:05;;;;;;;;;;;;;;;;;;5031998;28;1115;-69
2022/04/12 06:32:32;;;;;;;;;;;;;;;;;;5031936;28;1064;-68
2022/04/12 06:34:59;;;;;;;;;;;;;;;;;;5031632;28;1377;-69
2022/04/12 06:37:25;;;;;;;;;;;;;;;;;;5031275;28;701;-69
2022/04/12 06:39:51;;;;;;;;;;;;;;;;;;5049727;28;2798;-72
2022/04/12 06:42:17;;;;;;;;;;;;;;;;;;5067809;28;1214;-70
2022/04/12 06:44:44;;;;;;;;;;;;;;;;;;5051214;28;1918;-70
2022/04/12 06:47:10;;;;;;;;;;;;;;;;;;5050843;28;1072;-71
2022/04/12 06:49:37;;;;;;;;;;;;;;;;;;5050599;28;948;-70
2022/04/12 06:52:04;;;;;;;;;;;;;;;;;;5051022;28;1112;-69
2022/04/12 06:54:30;;;;;;;;;;;;;;;;;;5051265;28;1363;-68
2022/04/12 06:56:56;;;;;;;;;;;;;;;;;;5050323;28;1562;-70
2022/04/12 06:59:24;;;;;;;;;;;;;;;;;;5051035;28;1080;-70
2022/04/12 07:01:50;;;;;;;;;;;;;;;;;;5051537;28;1082;-69
2022/04/12 07:04:16;;;;;;;;;;;;;;;;;;5045283;28;1918;-69
2022/04/12 07:06:44;;;;;;;;;;;;;;;;;;5050520;28;1133;-70
2022/04/12 07:09:17;;;;;;;;;;;;;;;;;;5051790;28;1103;-70
2022/04/12 07:11:43;;;;;;;;;;;;;;;;;;5051661;28;1277;-70
2022/04/12 07:14:09;;;;;;;;;;;;;;;;;;5051055;28;1419;-70
2022/04/12 07:16:35;;;;;;;;;;;;;;;;;;5050100;28;1003;-69
2022/04/12 07:19:01;;;;;;;;;;;;;;;;;;5051018;28;1068;-70
2022/04/12 07:21:29;;;;;;;;;;;;;;;;;;5050914;28;961;-69
2022/04/12 07:23:56;;;;;;;;;;;;;;;;;;5050540;28;1911;-70
2022/04/12 07:26:22;;;;;;;;;;;;;;;;;;5050560;28;1231;-69
2022/04/12 07:28:49;;;;;;;;;;;;;;;;;;5050661;28;941;-69
2022/04/12 07:31:15;;;;;;;;;;;;;;;;;;5051126;28;741;-70
2022/04/12 07:33:41;;;;;;;;;;;;;;;;;;5050159;28;1345;-72
2022/04/12 07:36:07;;;;;;;;;;;;;;;;;;5050375;28;745;-71
2022/04/12 07:38:33;;;;;;;;;;;;;;;;;;5050590;28;1158;-71
2022/04/12 07:41:01;;;;;;;;;;;;;;;;;;5050676;28;1063;-70
2022/04/12 07:43:27;;;;;;;;;;;;;;;;;;5050485;28;1914;-70
2022/04/12 07:45:53;;;;;;;;;;;;;;;;;;5050527;28;1087;-70
2022/04/12 07:48:19;;;;;;;;;;;;;;;;;;5050330;28;812;-70
2022/04/12 07:50:45;;;;;;;;;;;;;;;;;;5050271;28;1031;-69
2022/04/12 07:53:12;;;;;;;;;;;;;;;;;;5050092;28;1440;-70
2022/04/12 07:55:38;;;;;;;;;;;;;;;;;;5050331;28;783;-70
2022/04/12 07:58:05;;;;;;;;;;;;;;;;;;5050209;28;1083;-70
2022/04/12 08:00:32;;;;;;;;;;;;;;;;;;5050418;28;1079;-70
2022/04/12 08:02:58;;;;;;;;;;;;;;;;;;5050585;28;1422;-70
2022/04/12 08:05:24;;;;;;;;;;;;;;;;;;5050209;28;1914;-70
2022/04/12 08:07:50;;;;;;;;;;;;;;;;;;5050028;28;1074;-69
2022/04/12 08:10:17;;;;;;;;;;;;;;;;;;5046086;28;1207;-70
2022/04/12 08:12:43;;;;;;;;;;;;;;;;;;5030357;28;901;-70
2022/04/12 08:15:11;;;;;;;;;;;;;;;;;;5030583;28;1305;-69
2022/04/12 08:17:37;;;;;;;;;;;;;;;;;;5029990;28;1071;-70
2022/04/12 08:20:05;;;;;;;;;;;;;;;;;;5030105;28;796;-69
2022/04/12 08:22:31;;;;;;;;;;;;;;;;;;5030295;28;1068;-70
2022/04/12 08:24:58;;;;;;;;;;;;;;;;;;5030021;28;1921;-70
2022/04/12 08:27:24;;;;;;;;;;;;;;;;;;5029767;28;1068;-70
2022/04/12 08:29:51;;;;;;;;;;;;;;;;;;5032135;28;845;-69
2022/04/12 08:32:18;;;;;;;;;;;;;;;;;;5033663;28;1080;-69
2022/04/12 08:34:44;;;;;;;;;;;;;;;;;;5033526;28;1324;-70
2022/04/12 08:37:11;;;;;;;;;;;;;;;;;;5053493;28;961;-69
2022/04/12 08:39:37;;;;;;;;;;;;;;;;;;5053291;28;1051;-70
2022/04/12 08:42:04;;;;;;;;;;;;;;;;;;5053713;28;961;-69
2022/04/12 08:44:30;;;;;;;;;;;;;;;;;;5053207;28;1914;-70
2022/04/12 08:46:57;;;;;;;;;;;;;;;;;;5053208;28;1118;-71
2022/04/12 08:49:24;;;;;;;;;;;;;;;;;;5053651;28;1076;-71
2022/04/12 08:51:51;;;;;;;;;;;;;;;;;;5050938;28;1530;-71
2022/04/12 08:54:17;;;;;;;;;;;;;;;;;;5051591;28;1523;-70
2022/04/12 08:56:45;;;;;;;;;;;;;;;;;;5053178;28;1068;-70
2022/04/12 08:59:12;;;;;;;;;;;;;;;;;;5053770;28;929;-70
2022/04/12 09:01:38;;;;;;;;;;;;;;;;;;5053479;28;1141;-70
2022/04/12 09:04:04;;;;;;;;;;;;;;;;;;5052827;28;1984;-70
2022/04/12 09:06:32;;;;;;;;;;;;;;;;;;5048819;28;1273;-70
2022/04/12 09:09:02;;;;;;;;;;;;;;;;;;5032811;28;1487;-70
2022/04/12 09:11:32;;;;;;;;;;;;;;;;;;5031902;28;883;-71
2022/04/12 09:13:59;;;;;;;;;;;;;;;;;;5033355;28;1405;-70
2022/04/12 09:16:25;;;;;;;;;;;;;;;;;;5033004;28;973;-71
2022/04/12 09:18:52;;;;;;;;;;;;;;;;;;5033346;28;854;-71
2022/04/12 09:21:18;;;;;;;;;;;;;;;;;;5033148;28;1101;-70
2022/04/12 09:23:47;;;;;;;;;;;;;;;;;;5032530;28;1914;-71
2022/04/12 09:26:17;;;;;;;;;;;;;;;;;;5032925;28;1072;-71
2022/04/12 09:28:44;;;;;;;;;;;;;;;;;;5033089;28;904;-71
2022/04/12 09:31:13;;;;;;;;;;;;;;;;;;5034551;28;901;-68
2022/04/12 09:33:40;;;;;;;;;;;;;;;;;;5032670;28;1302;-69
2022/04/12 09:36:06;;;;;;;;;;;;;;;;;;5032691;28;874;-68
2022/04/12 09:38:33;;;;;;;;;;;;;;;;;;5032886;28;866;-68
2022/04/12 09:41:14;;;;;;;;;;;;;;;;;;5032260;28;1131;-67
2022/04/12 09:43:54;;;;;;;;;;;;;;;;;;5031562;28;1913;-68
2022/04/12 09:46:20;;;;;;;;;;;;;;;;;;5032375;28;808;-67
2022/04/12 09:48:47;;;;;;;;;;;;;;;;;;5032230;28;1140;-68
2022/04/12 09:51:13;;;;;;;;;;;;;;;;;;5032528;28;1235;-67
2022/04/12 09:53:40;;;;;;;;;;;;;;;;;;5031037;28;1399;-68
2022/04/12 09:56:14;;;;;;;;;;;;;;;;;;5032333;28;965;-67
2022/04/12 09:58:40;;;;;;;;;;;;;;;;;;5032474;28;676;-68
2022/04/12 10:01:08;;;;;;;;;;;;;;;;;;5032374;28;941;-68
2022/04/12 10:03:34;;;;;;;;;;;;;;;;;;5032219;28;1417;-68
2022/04/12 10:06:00;;;;;;;;;;;;;;;;;;5032181;28;1987;-67
2022/04/12 10:08:26;;;;;;;;;;;;;;;;;;5032076;28;818;-68
2022/04/12 10:10:53;;;;;;;;;;;;;;;;;;5032292;28;953;-68
2022/04/12 10:13:19;;;;;;;;;;;;;;;;;;5032146;28;1293;-68
2022/04/12 10:15:45;;;;;;;;;;;;;;;;;;5031900;28;1068;-68
2022/04/12 10:18:15;;;;;;;;;;;;;;;;;;5032413;28;995;-68
2022/04/12 10:20:41;;;;;;;;;;;;;;;;;;5032512;28;938;-68
2022/04/12 10:23:07;;;;;;;;;;;;;;;;;;5032214;28;1320;-68
2022/04/12 10:25:33;;;;;;;;;;;;;;;;;;5031579;28;1918;-68
2022/04/12 10:28:00;;;;;;;;;;;;;;;;;;5032140;28;1143;-68
2022/04/12 10:30:27;;;;;;;;;;;;;;;;;;5031725;28;1092;-68
2022/04/12 10:33:00;;;;;;;;;;;;;;;;;;5031453;28;1177;-68
2022/04/12 10:35:27;;;;;;;;;;;;;;;;;;5031268;28;1310;-68
2022/04/12 10:37:56;;;;;;;;;;;;;;;;;;5040864;28;1446;-68
2022/04/12 10:40:23;;;;;;;;;;;;;;;;;;5045287;28;1214;-68
2022/04/12 10:42:49;;;;;;;;;;;;;;;;;;5041619;28;1305;-68
2022/04/12 10:45:16;;;;;;;;;;;;;;;;;;5039907;28;1910;-68
2022/04/12 10:47:43;;;;;;;;;;;;;;;;;;5045606;28;1569;-68
2022/04/12 10:50:10;;;;;;;;;;;;;;;;;;5039934;28;1431;-68
2022/04/12 10:52:42;;;;;;;;;;;;;;;;;;5041020;28;1211;-68
2022/04/12 10:55:09;;;;;;;;;;;;;;;;;;5040856;28;1475;-68
2022/04/12 10:57:35;;;;;;;;;;;;;;;;;;5039434;28;1286;-68
2022/04/12 11:00:09;;;;;;;;;;;;;;;;;;5041547;28;1318;-68
2022/04/12 11:02:39;;;;;;;;;;;;;;;;;;5040258;28;1543;-68
2022/04/12 11:05:06;;;;;;;;;;;;;;;;;;5040344;28;1968;-68
2022/04/12 11:07:33;;;;;;;;;;;;;;;;;;5039686;28;1270;-68
2022/04/12 11:10:07;;;;;;;;;;;;;;;;;;5040045;28;1976;-68
2022/04/12 11:12:40;;;;;;;;;;;;;;;;;;5041586;28;1238;-68
2022/04/12 11:15:20;;;;;;;;;;;;;;;;;;5040287;28;1475;-68
2022/04/12 11:17:46;;;;;;;;;;;;;;;;;;5033219;28;1223;-68
2022/04/12 11:20:20;;;;;;;;;;;;;;;;;;5030958;28;984;-68
2022/04/12 11:22:46;;;;;;;;;;;;;;;;;;5030766;28;1048;-68
2022/04/12 11:25:18;;;;;;;;;;;;;;;;;;5030480;28;1975;-68
2022/04/12 11:27:44;;;;;;;;;;;;;;;;;;5030588;28;1072;-68
2022/04/12 11:30:13;;;;;;;;;;;;;;;;;;5031186;28;661;-68
2022/04/12 11:32:39;;;;;;;;;;;;;;;;;;5030637;28;985;-69
2022/04/12 11:35:05;;;;;;;;;;;;;;;;;;5030559;28;1458;-69
2022/04/12 11:37:32;;;;;;;;;;;;;;;;;;5030517;28;958;-68
2022/04/12 11:39:58;;;;;;;;;;;;;;;;;;5030814;28;1118;-69
2022/04/12 11:42:26;;;;;;;;;;;;;;;;;;5030616;28;1104;-69
2022/04/12 11:44:52;;;;;;;;;;;;;;;;;;5030315;28;2010;-68
2022/04/12 11:47:19;;;;;;;;;;;;;;;;;;5030531;28;732;-68
2022/04/12 11:49:45;;;;;;;;;;;;;;;;;;5030491;28;1114;-69
2022/04/12 11:52:12;;;;;;;;;;;;;;;;;;5030509;28;846;-68
2022/04/12 11:54:39;;;;;;;;;;;;;;;;;;5030553;28;1322;-69
2022/04/12 11:57:06;;;;;;;;;;;;;;;;;;5030227;28;775;-69
2022/04/12 11:59:34;;;;;;;;;;;;;;;;;;5030359;28;1083;-68
2022/04/12 12:02:02;;;;;;;;;;;;;;;;;;5030610;28;754;-69
2022/04/12 12:04:29;;;;;;;;;;;;;;;;;;5033417;28;1971;-69
2022/04/12 12:06:59;;;;;;;;;;;;;;;;;;5034593;28;1072;-69
2022/04/12 12:09:26;;;;;;;;;;;;;;;;;;5034476;28;1009;-69
2022/04/12 12:11:52;;;;;;;;;;;;;;;;;;5034377;28;957;-69
2022/04/12 12:14:19;;;;;;;;;;;;;;;;;;5034270;28;1321;-69
2022/04/12 12:16:47;;;;;;;;;;;;;;;;;;5033672;28;1052;-68
2022/04/12 12:19:14;;;;;;;;;;;;;;;;;;5033934;28;842;-68
2022/04/12 12:21:43;;;;;;;;;;;;;;;;;;5040666;28;1313;-68
2022/04/12 12:24:10;;;;;;;;;;;;;;;;;;5054074;28;1314;-67
2022/04/12 12:26:36;;;;;;;;;;;;;;;;;;5053427;28;1910;-67
2022/04/12 12:29:02;;;;;;;;;;;;;;;;;;5044510;28;1356;-68
2022/04/12 12:31:28;;;;;;;;;;;;;;;;;;5043066;28;1199;-68
2022/04/12 12:33:56;;;;;;;;;;;;;;;;;;5037672;28;1316;-69
2022/04/12 12:36:22;;;;;;;;;;;;;;;;;;5032477;28;1115;-68
2022/04/12 12:38:48;;;;;;;;;;;;;;;;;;5033873;28;1068;-68
2022/04/12 12:41:24;;;;;;;;;;;;;;;;;;5036163;28;1588;-69
2022/04/12 12:43:52;;;;;;;;;;;;;;;;;;5033756;28;1326;-69
2022/04/12 12:46:19;;;;;;;;;;;;;;;;;;5033840;28;1977;-68
2022/04/12 12:48:45;;;;;;;;;;;;;;;;;;5034248;28;814;-68
2022/04/12 12:51:12;;;;;;;;;;;;;;;;;;5033768;28;1064;-68
2022/04/12 12:53:40;;;;;;;;;;;;;;;;;;5033469;28;1286;-69
2022/04/12 12:56:14;;;;;;;;;;;;;;;;;;5033763;28;782;-69
2022/04/12 12:58:40;;;;;;;;;;;;;;;;;;5033413;28;1119;-68
2022/04/12 13:01:06;;;;;;;;;;;;;;;;;;5033726;28;783;-68
2022/04/12 13:03:32;;;;;;;;;;;;;;;;;;5033108;28;1301;-68
2022/04/12 13:05:59;;;;;;;;;;;;;;;;;;5033310;28;1898;-69
2022/04/12 13:08:27;;;;;;;;;;;;;;;;;;5032951;28;1119;-68
2022/04/12 13:10:54;;;;;;;;;;;;;;;;;;5042969;28;1273;-68
2022/04/12 13:13:21;;;;;;;;;;;;;;;;;;5051912;28;1391;-68
2022/04/12 13:15:47;;;;;;;;;;;;;;;;;;5051886;28;804;-69
2022/04/12 13:18:13;;;;;;;;;;;;;;;;;;5052913;28;1106;-68
2022/04/12 13:20:39;;;;;;;;;;;;;;;;;;5052808;28;1059;-68
2022/04/12 13:23:06;;;;;;;;;;;;;;;;;;5053018;28;1297;-68
2022/04/12 13:25:33;;;;;;;;;;;;;;;;;;5053077;28;1072;-69
2022/04/12 13:27:59;;;;;;;;;;;;;;;;;;5048423;28;1111;-68
2022/04/12 13:30:25;;;;;;;;;;;;;;;;;;5042334;28;1267;-68
2022/04/12 13:32:52;;;;;;;;;;;;;;;;;;5041042;28;1261;-69
2022/04/12 13:35:19;;;;;;;;;;;;;;;;;;5038127;28;1979;-69
2022/04/12 13:37:45;;;;;;;;;;;;;;;;;;5033362;28;921;-69
2022/04/12 13:40:12;;;;;;;;;;;;;;;;;;5032958;28;791;-69
2022/04/12 13:42:45;;;;;;;;;;;;;;;;;;5032145;28;1060;-69
2022/04/12 13:45:11;;;;;;;;;;;;;;;;;;5032527;28;1334;-69
2022/04/12 13:47:37;;;;;;;;;;;;;;;;;;5032081;28;1071;-69
2022/04/12 13:50:04;;;;;;;;;;;;;;;;;;5032282;28;730;-69
2022/04/12 13:52:30;;;;;;;;;;;;;;;;;;5032438;28;964;-69
2022/04/12 13:54:56;;;;;;;;;;;;;;;;;;5032183;28;1339;-69
2022/04/12 13:57:22;;;;;;;;;;;;;;;;;;5031844;28;1962;-69
2022/04/12 13:59:50;;;;;;;;;;;;;;;;;;5031516;28;1100;-69
2022/04/12 14:02:16;;;;;;;;;;;;;;;;;;5032591;28;1068;-69
2022/04/12 14:04:42;;;;;;;;;;;;;;;;;;5030562;28;1400;-69
2022/04/12 14:07:09;;;;;;;;;;;;;;;;;;5031766;28;1128;-69
2022/04/12 14:09:35;;;;;;;;;;;;;;;;;;5031719;28;970;-69
2022/04/12 14:12:01;;;;;;;;;;;;;;;;;;5032250;28;1068;-68
2022/04/12 14:14:28;;;;;;;;;;;;;;;;;;5032094;28;1383;-70
2022/04/12 14:16:55;;;;;;;;;;;;;;;;;;5041387;28;1910;-69
2022/04/12 14:19:22;;;;;;;;;;;;;;;;;;5051041;28;1069;-69
2022/04/12 14:21:49;;;;;;;;;;;;;;;;;;5051814;28;818;-69
2022/04/12 14:24:16;;;;;;;;;;;;;;;;;;5051772;28;1317;-68
2022/04/12 14:26:42;;;;;;;;;;;;;;;;;;5051209;28;1075;-69
2022/04/12 14:29:09;;;;;;;;;;;;;;;;;;5051978;28;960;-69
2022/04/12 14:31:36;;;;;;;;;;;;;;;;;;5052014;28;662;-69
2022/04/12 14:34:03;;;;;;;;;;;;;;;;;;5051539;28;1317;-69
2022/04/12 14:36:29;;;;;;;;;;;;;;;;;;5051450;28;1977;-69
2022/04/12 14:38:56;;;;;;;;;;;;;;;;;;5051599;28;885;-69
2022/04/12 14:41:23;;;;;;;;;;;;;;;;;;5051103;28;1722;-69
2022/04/12 14:43:49;;;;;;;;;;;;;;;;;;5050898;28;1384;-68
2022/04/12 14:46:16;;;;;;;;;;;;;;;;;;5051383;28;1134;-68
2022/04/12 14:48:42;;;;;;;;;;;;;;;;;;5051592;28;1068;-69
2022/04/12 14:51:09;;;;;;;;;;;;;;;;;;5050789;28;1526;-69
2022/04/12 14:53:36;;;;;;;;;;;;;;;;;;5051532;28;1405;-69
2022/04/12 14:56:02;;;;;;;;;;;;;;;;;;5050661;28;1973;-70
2022/04/12 14:58:29;;;;;;;;;;;;;;;;;;5051342;28;778;-68
2022/04/12 15:00:55;;;;;;;;;;;;;;;;;;5051311;28;882;-69
2022/04/12 15:03:22;;;;;;;;;;;;;;;;;;5050637;28;1329;-69
2022/04/12 15:05:48;;;;;;;;;;;;;;;;;;5050973;28;953;-69
2022/04/12 15:08:16;;;;;;;;;;;;;;;;;;5050913;28;1059;-69
2022/04/12 15:10:42;;;;;;;;;;;;;;;;;;5032023;28;1348;-69
2022/04/12 15:13:09;;;;;;;;;;;;;;;;;;5030930;28;1389;-69
2022/04/12 15:15:35;;;;;;;;;;;;;;;;;;5030818;28;1973;-69
2022/04/12 15:18:01;;;;;;;;;;;;;;;;;;5030905;28;1036;-69
2022/04/12 15:20:28;;;;;;;;;;;;;;;;;;5030745;28;961;-69
2022/04/12 15:22:54;;;;;;;;;;;;;;;;;;5030650;28;1068;-69
2022/04/12 15:25:21;;;;;;;;;;;;;;;;;;5030573;28;1282;-69
2022/04/12 15:27:48;;;;;;;;;;;;;;;;;;5030730;28;1036;-69
2022/04/12 15:30:14;;;;;;;;;;;;;;;;;;5030926;28;1126;-69
2022/04/12 15:32:40;;;;;;;;;;;;;;;;;;5030994;28;785;-68
2022/04/12 15:35:09;;;;;;;;;;;;;;;;;;5029186;28;1466;-70
2022/04/12 15:37:37;;;;;;;;;;;;;;;;;;5029949;28;1920;-69
2022/04/12 15:40:04;;;;;;;;;;;;;;;;;;5030787;28;1091;-69
2022/04/12 15:42:32;;;;;;;;;;;;;;;;;;5030350;28;897;-69
2022/04/12 15:44:59;;;;;;;;;;;;;;;;;;5030424;28;1313;-68
2022/04/12 15:47:25;;;;;;;;;;;;;;;;;;5030238;28;1068;-69
2022/04/12 15:49:51;;;;;;;;;;;;;;;;;;5030664;28;1029;-69
2022/04/12 15:52:17;;;;;;;;;;;;;;;;;;5051650;23;3449;-69
2022/04/12 15:54:43;;;;;;;;;;;;;;;;;;5049953;28;1189;-69
2022/04/12 15:57:09;;;;;;;;;;;;;;;;;;5049849;28;1971;-69
2022/04/12 15:59:37;;;;;;;;;;;;;;;;;;5050462;28;877;-68
2022/04/12 16:02:03;;;;;;;;;;;;;;;;;;5050140;28;1373;-70
2022/04/12 16:04:30;;;;;;;;;;;;;;;;;;5050454;28;803;-69
2022/04/12 16:06:56;;;;;;;;;;;;;;;;;;5050103;28;1107;-68
2022/04/12 16:09:23;;;;;;;;;;;;;;;;;;5048338;28;1090;-70
2022/04/12 16:11:49;;;;;;;;;;;;;;;;;;5030310;28;1350;-69
2022/04/12 16:14:15;;;;;;;;;;;;;;;;;;5030339;28;802;-69
2022/04/12 16:16:42;;;;;;;;;;;;;;;;;;5028768;28;1918;-69
2022/04/12 16:19:09;;;;;;;;;;;;;;;;;;5030341;28;1068;-69
2022/04/12 16:21:35;;;;;;;;;;;;;;;;;;5030262;28;1447;-68
2022/04/12 16:24:01;;;;;;;;;;;;;;;;;;5030699;28;787;-70
2022/04/12 16:26:27;;;;;;;;;;;;;;;;;;5030038;28;889;-70
2022/04/12 16:28:53;;;;;;;;;;;;;;;;;;5030433;28;1268;-69
2022/04/12 16:31:20;;;;;;;;;;;;;;;;;;5030415;28;1330;-70
2022/04/12 16:33:47;;;;;;;;;;;;;;;;;;5030353;28;1126;-70
2022/04/12 16:36:14;;;;;;;;;;;;;;;;;;5029534;28;1923;-70
2022/04/12 16:38:40;;;;;;;;;;;;;;;;;;5030496;28;953;-70
2022/04/12 16:41:06;;;;;;;;;;;;;;;;;;5030139;28;1317;-70
2022/04/12 16:43:32;;;;;;;;;;;;;;;;;;5027487;28;1542;-69
2022/04/12 16:45:58;;;;;;;;;;;;;;;;;;5015156;28;1151;-70
2022/04/12 16:48:25;;;;;;;;;;;;;;;;;;5049911;28;949;-70
2022/04/12 16:50:52;;;;;;;;;;;;;;;;;;5050528;28;1342;-69
2022/04/12 16:53:20;;;;;;;;;;;;;;;;;;5053382;28;1413;-70
2022/04/12 16:55:46;;;;;;;;;;;;;;;;;;5052123;28;1217;-71
2022/04/12 16:58:13;;;;;;;;;;;;;;;;;;5053106;28;1922;-70
2022/04/12 17:00:39;;;;;;;;;;;;;;;;;;5052497;28;1139;-69
2022/04/12 17:03:06;;;;;;;;;;;;;;;;;;5053592;28;1348;-70
2022/04/12 17:05:32;;;;;;;;;;;;;;;;;;5053734;28;1051;-69
2022/04/12 17:08:00;;;;;;;;;;;;;;;;;;5052536;28;1115;-69